sensor_id;sensor_type;location;lat;lon;timestamp;P1;durP1;ratioP1;P2;durP2;ratioP2
5085;SDS011;4715;51.660;7.082;2023-07-08T00:01:07;1.40;;;1.30;;
5085;SDS011;4715;51.660;7.082;2023-07-08T00:03:32;1.80;;;1.70;;
5085;SDS011;4715;51.660;7.082;2023-07-08T00:05:55;1.80;;;1.70;;
5085;SDS011;4715;51.660;7.082;2023-07-08T00:08:17;3.50;;;1.70;;
5085;SDS011;4715;51.660;7.082;2023-07-08T00:10:41;1.70;;;1.60;;
5085;SDS011;4715;51.660;7.082;2023-07-08T00:13:02;1.90;;;1.80;;
5085;SDS011;4715;51.660;7.082;2023-07-08T00:15:25;1.60;;;1.50;;
5085;SDS011;4715;51.660;7.082;2023-07-08T00:17:49;1.70;;;1.60;;
5085;SDS011;4715;51.660;7.082;2023-07-08T00:20:12;1.87;;;1.77;;
5085;SDS011;4715;51.660;7.082;2023-07-08T00:22:35;2.20;;;2.10;;
5085;SDS011;4715;51.660;7.082;2023-07-08T00:24:58;2.17;;;2.07;;
5085;SDS011;4715;51.660;7.082;2023-07-08T00:27:20;1.50;;;1.40;;
5085;SDS011;4715;51.660;7.082;2023-07-08T00:29:42;2.00;;;1.90;;
5085;SDS011;4715;51.660;7.082;2023-07-08T00:32:08;2.27;;;2.07;;
5085;SDS011;4715;51.660;7.082;2023-07-08T00:34:34;1.70;;;1.60;;
5085;SDS011;4715;51.660;7.082;2023-07-08T00:36:55;1.50;;;1.40;;
5085;SDS011;4715;51.660;7.082;2023-07-08T00:39:17;1.50;;;1.40;;
5085;SDS011;4715;51.660;7.082;2023-07-08T00:41:39;1.83;;;1.73;;
5085;SDS011;4715;51.660;7.082;2023-07-08T00:44:03;1.60;;;1.50;;
5085;SDS011;4715;51.660;7.082;2023-07-08T00:46:29;2.07;;;1.97;;
5085;SDS011;4715;51.660;7.082;2023-07-08T00:48:55;1.67;;;1.57;;
5085;SDS011;4715;51.660;7.082;2023-07-08T00:51:21;1.47;;;1.37;;
5085;SDS011;4715;51.660;7.082;2023-07-08T00:53:44;1.73;;;1.63;;
5085;SDS011;4715;51.660;7.082;2023-07-08T00:56:08;2.20;;;2.10;;
5085;SDS011;4715;51.660;7.082;2023-07-08T00:58:34;1.93;;;1.67;;
5085;SDS011;4715;51.660;7.082;2023-07-08T01:00:59;2.20;;;2.10;;
5085;SDS011;4715;51.660;7.082;2023-07-08T01:03:23;1.83;;;1.73;;
5085;SDS011;4715;51.660;7.082;2023-07-08T01:05:45;1.70;;;1.60;;
5085;SDS011;4715;51.660;7.082;2023-07-08T01:08:09;1.90;;;1.80;;
5085;SDS011;4715;51.660;7.082;2023-07-08T01:10:32;2.00;;;1.90;;
5085;SDS011;4715;51.660;7.082;2023-07-08T01:12:59;1.60;;;1.50;;
5085;SDS011;4715;51.660;7.082;2023-07-08T01:15:23;1.67;;;1.57;;
5085;SDS011;4715;51.660;7.082;2023-07-08T01:17:54;1.70;;;1.60;;
5085;SDS011;4715;51.660;7.082;2023-07-08T01:20:16;1.50;;;1.40;;
5085;SDS011;4715;51.660;7.082;2023-07-08T01:22:40;1.27;;;1.27;;
5085;SDS011;4715;51.660;7.082;2023-07-08T01:25:03;1.50;;;1.40;;
5085;SDS011;4715;51.660;7.082;2023-07-08T01:27:25;1.87;;;1.77;;
5085;SDS011;4715;51.660;7.082;2023-07-08T01:29:47;1.83;;;1.73;;
5085;SDS011;4715;51.660;7.082;2023-07-08T01:32:10;1.50;;;1.40;;
5085;SDS011;4715;51.660;7.082;2023-07-08T01:34:37;1.80;;;1.70;;
5085;SDS011;4715;51.660;7.082;2023-07-08T01:36:59;3.47;;;1.87;;
5085;SDS011;4715;51.660;7.082;2023-07-08T01:39:27;1.90;;;1.80;;
5085;SDS011;4715;51.660;7.082;2023-07-08T01:41:52;1.90;;;1.80;;
5085;SDS011;4715;51.660;7.082;2023-07-08T01:44:23;2.80;;;1.97;;
5085;SDS011;4715;51.660;7.082;2023-07-08T01:46:47;1.90;;;1.80;;
5085;SDS011;4715;51.660;7.082;2023-07-08T01:49:10;2.37;;;1.87;;
5085;SDS011;4715;51.660;7.082;2023-07-08T01:51:32;1.80;;;1.70;;
5085;SDS011;4715;51.660;7.082;2023-07-08T01:53:54;1.80;;;1.70;;
5085;SDS011;4715;51.660;7.082;2023-07-08T01:56:17;1.60;;;1.50;;
5085;SDS011;4715;51.660;7.082;2023-07-08T01:58:39;1.93;;;1.83;;
5085;SDS011;4715;51.660;7.082;2023-07-08T02:01:01;1.60;;;1.50;;
5085;SDS011;4715;51.660;7.082;2023-07-08T02:03:24;1.90;;;1.80;;
5085;SDS011;4715;51.660;7.082;2023-07-08T02:05:47;1.60;;;1.50;;
5085;SDS011;4715;51.660;7.082;2023-07-08T02:08:09;1.50;;;1.40;;
5085;SDS011;4715;51.660;7.082;2023-07-08T02:10:31;1.80;;;1.63;;
5085;SDS011;4715;51.660;7.082;2023-07-08T02:12:54;1.50;;;1.40;;
5085;SDS011;4715;51.660;7.082;2023-07-08T02:15:16;1.50;;;1.40;;
5085;SDS011;4715;51.660;7.082;2023-07-08T02:17:38;1.83;;;1.73;;
5085;SDS011;4715;51.660;7.082;2023-07-08T02:20:00;1.90;;;1.80;;
5085;SDS011;4715;51.660;7.082;2023-07-08T02:22:23;1.63;;;1.53;;
5085;SDS011;4715;51.660;7.082;2023-07-08T02:24:44;1.60;;;1.50;;
5085;SDS011;4715;51.660;7.082;2023-07-08T02:27:06;1.60;;;1.50;;
5085;SDS011;4715;51.660;7.082;2023-07-08T02:29:30;1.67;;;1.57;;
5085;SDS011;4715;51.660;7.082;2023-07-08T02:31:53;1.53;;;1.40;;
5085;SDS011;4715;51.660;7.082;2023-07-08T02:34:14;1.33;;;1.23;;
5085;SDS011;4715;51.660;7.082;2023-07-08T02:36:36;1.50;;;1.40;;
5085;SDS011;4715;51.660;7.082;2023-07-08T02:38:58;1.60;;;1.50;;
5085;SDS011;4715;51.660;7.082;2023-07-08T02:41:20;1.53;;;1.43;;
5085;SDS011;4715;51.660;7.082;2023-07-08T02:43:42;1.73;;;1.63;;
5085;SDS011;4715;51.660;7.082;2023-07-08T02:46:06;1.60;;;1.50;;
5085;SDS011;4715;51.660;7.082;2023-07-08T02:48:27;1.67;;;1.57;;
5085;SDS011;4715;51.660;7.082;2023-07-08T02:50:49;1.83;;;1.67;;
5085;SDS011;4715;51.660;7.082;2023-07-08T02:53:11;1.57;;;1.47;;
5085;SDS011;4715;51.660;7.082;2023-07-08T02:55:33;1.40;;;1.33;;
5085;SDS011;4715;51.660;7.082;2023-07-08T02:57:55;1.20;;;1.20;;
5085;SDS011;4715;51.660;7.082;2023-07-08T03:00:17;1.43;;;1.37;;
5085;SDS011;4715;51.660;7.082;2023-07-08T03:02:40;1.50;;;1.40;;
5085;SDS011;4715;51.660;7.082;2023-07-08T03:05:02;1.23;;;1.20;;
5085;SDS011;4715;51.660;7.082;2023-07-08T03:07:25;1.80;;;1.70;;
5085;SDS011;4715;51.660;7.082;2023-07-08T03:09:47;1.80;;;1.70;;
5085;SDS011;4715;51.660;7.082;2023-07-08T03:12:09;1.87;;;1.77;;
5085;SDS011;4715;51.660;7.082;2023-07-08T03:14:32;1.50;;;1.40;;
5085;SDS011;4715;51.660;7.082;2023-07-08T03:16:54;1.23;;;1.20;;
5085;SDS011;4715;51.660;7.082;2023-07-08T03:19:17;1.60;;;1.50;;
5085;SDS011;4715;51.660;7.082;2023-07-08T03:21:41;1.67;;;1.57;;
5085;SDS011;4715;51.660;7.082;2023-07-08T03:24:03;1.60;;;1.50;;
5085;SDS011;4715;51.660;7.082;2023-07-08T03:26:25;1.50;;;1.40;;
5085;SDS011;4715;51.660;7.082;2023-07-08T03:28:47;1.60;;;1.50;;
5085;SDS011;4715;51.660;7.082;2023-07-08T03:31:09;1.77;;;1.67;;
5085;SDS011;4715;51.660;7.082;2023-07-08T03:33:31;1.50;;;1.40;;
5085;SDS011;4715;51.660;7.082;2023-07-08T03:35:54;1.40;;;1.30;;
5085;SDS011;4715;51.660;7.082;2023-07-08T03:38:16;1.90;;;1.80;;
5085;SDS011;4715;51.660;7.082;2023-07-08T03:40:38;1.73;;;1.63;;
5085;SDS011;4715;51.660;7.082;2023-07-08T03:43:00;1.80;;;1.70;;
5085;SDS011;4715;51.660;7.082;2023-07-08T03:45:22;1.47;;;1.37;;
5085;SDS011;4715;51.660;7.082;2023-07-08T03:47:44;1.70;;;1.60;;
5085;SDS011;4715;51.660;7.082;2023-07-08T03:50:07;1.70;;;1.60;;
5085;SDS011;4715;51.660;7.082;2023-07-08T03:52:39;1.90;;;1.80;;
5085;SDS011;4715;51.660;7.082;2023-07-08T03:55:00;1.87;;;1.77;;
5085;SDS011;4715;51.660;7.082;2023-07-08T03:57:23;1.60;;;1.50;;
5085;SDS011;4715;51.660;7.082;2023-07-08T03:59:46;1.67;;;1.57;;
5085;SDS011;4715;51.660;7.082;2023-07-08T04:02:08;1.60;;;1.50;;
5085;SDS011;4715;51.660;7.082;2023-07-08T04:04:31;3.20;;;1.30;;
5085;SDS011;4715;51.660;7.082;2023-07-08T04:06:52;1.60;;;1.50;;
5085;SDS011;4715;51.660;7.082;2023-07-08T04:09:16;1.80;;;1.70;;
5085;SDS011;4715;51.660;7.082;2023-07-08T04:11:38;1.47;;;1.37;;
5085;SDS011;4715;51.660;7.082;2023-07-08T04:13:59;2.17;;;1.97;;
5085;SDS011;4715;51.660;7.082;2023-07-08T04:16:22;1.53;;;1.43;;
5085;SDS011;4715;51.660;7.082;2023-07-08T04:18:48;2.17;;;2.07;;
5085;SDS011;4715;51.660;7.082;2023-07-08T04:21:14;1.90;;;1.80;;
5085;SDS011;4715;51.660;7.082;2023-07-08T04:23:37;1.70;;;1.60;;
5085;SDS011;4715;51.660;7.082;2023-07-08T04:26:00;1.93;;;1.83;;
5085;SDS011;4715;51.660;7.082;2023-07-08T04:28:22;2.03;;;1.90;;
5085;SDS011;4715;51.660;7.082;2023-07-08T04:30:44;1.63;;;1.53;;
5085;SDS011;4715;51.660;7.082;2023-07-08T04:33:06;1.57;;;1.47;;
5085;SDS011;4715;51.660;7.082;2023-07-08T04:35:28;1.77;;;1.67;;
5085;SDS011;4715;51.660;7.082;2023-07-08T04:37:49;2.00;;;1.90;;
5085;SDS011;4715;51.660;7.082;2023-07-08T04:40:12;1.80;;;1.70;;
5085;SDS011;4715;51.660;7.082;2023-07-08T04:42:41;1.77;;;1.67;;
5085;SDS011;4715;51.660;7.082;2023-07-08T04:45:05;1.90;;;1.80;;
5085;SDS011;4715;51.660;7.082;2023-07-08T04:47:27;1.93;;;1.80;;
5085;SDS011;4715;51.660;7.082;2023-07-08T04:49:49;1.80;;;1.70;;
5085;SDS011;4715;51.660;7.082;2023-07-08T04:52:11;2.13;;;1.60;;
5085;SDS011;4715;51.660;7.082;2023-07-08T04:54:33;1.87;;;1.77;;
5085;SDS011;4715;51.660;7.082;2023-07-08T04:56:55;2.10;;;2.00;;
5085;SDS011;4715;51.660;7.082;2023-07-08T04:59:21;1.73;;;1.63;;
5085;SDS011;4715;51.660;7.082;2023-07-08T05:01:44;1.83;;;1.73;;
5085;SDS011;4715;51.660;7.082;2023-07-08T05:04:07;1.80;;;1.70;;
5085;SDS011;4715;51.660;7.082;2023-07-08T05:06:30;1.77;;;1.67;;
5085;SDS011;4715;51.660;7.082;2023-07-08T05:08:52;2.00;;;1.90;;
5085;SDS011;4715;51.660;7.082;2023-07-08T05:11:14;1.90;;;1.80;;
5085;SDS011;4715;51.660;7.082;2023-07-08T05:13:36;1.93;;;1.83;;
5085;SDS011;4715;51.660;7.082;2023-07-08T05:15:59;1.70;;;1.60;;
5085;SDS011;4715;51.660;7.082;2023-07-08T05:18:21;2.33;;;2.20;;
5085;SDS011;4715;51.660;7.082;2023-07-08T05:20:43;2.37;;;2.17;;
5085;SDS011;4715;51.660;7.082;2023-07-08T05:23:11;2.10;;;2.00;;
5085;SDS011;4715;51.660;7.082;2023-07-08T05:25:33;1.93;;;1.83;;
5085;SDS011;4715;51.660;7.082;2023-07-08T05:27:56;1.60;;;1.50;;
5085;SDS011;4715;51.660;7.082;2023-07-08T05:30:18;1.80;;;1.70;;
5085;SDS011;4715;51.660;7.082;2023-07-08T05:32:41;1.60;;;1.50;;
5085;SDS011;4715;51.660;7.082;2023-07-08T05:35:03;1.60;;;1.50;;
5085;SDS011;4715;51.660;7.082;2023-07-08T05:37:25;1.77;;;1.67;;
5085;SDS011;4715;51.660;7.082;2023-07-08T05:39:48;1.87;;;1.70;;
5085;SDS011;4715;51.660;7.082;2023-07-08T05:42:10;1.73;;;1.63;;
5085;SDS011;4715;51.660;7.082;2023-07-08T05:44:32;2.00;;;1.90;;
5085;SDS011;4715;51.660;7.082;2023-07-08T05:46:54;1.80;;;1.70;;
5085;SDS011;4715;51.660;7.082;2023-07-08T05:49:17;1.30;;;1.30;;
5085;SDS011;4715;51.660;7.082;2023-07-08T05:51:39;1.57;;;1.47;;
5085;SDS011;4715;51.660;7.082;2023-07-08T05:54:01;1.70;;;1.60;;
5085;SDS011;4715;51.660;7.082;2023-07-08T05:56:23;1.77;;;1.67;;
5085;SDS011;4715;51.660;7.082;2023-07-08T05:58:45;1.77;;;1.67;;
5085;SDS011;4715;51.660;7.082;2023-07-08T06:01:07;1.90;;;1.80;;
5085;SDS011;4715;51.660;7.082;2023-07-08T06:03:29;1.70;;;1.60;;
5085;SDS011;4715;51.660;7.082;2023-07-08T06:05:52;1.80;;;1.70;;
5085;SDS011;4715;51.660;7.082;2023-07-08T06:08:14;1.40;;;1.30;;
5085;SDS011;4715;51.660;7.082;2023-07-08T06:10:40;2.30;;;1.60;;
5085;SDS011;4715;51.660;7.082;2023-07-08T06:13:03;2.10;;;2.00;;
5085;SDS011;4715;51.660;7.082;2023-07-08T06:15:26;1.50;;;1.40;;
5085;SDS011;4715;51.660;7.082;2023-07-08T06:17:47;1.90;;;1.80;;
5085;SDS011;4715;51.660;7.082;2023-07-08T06:20:09;2.50;;;2.17;;
5085;SDS011;4715;51.660;7.082;2023-07-08T06:22:33;2.10;;;1.90;;
5085;SDS011;4715;51.660;7.082;2023-07-08T06:24:54;2.00;;;1.80;;
5085;SDS011;4715;51.660;7.082;2023-07-08T06:27:16;3.00;;;1.73;;
5085;SDS011;4715;51.660;7.082;2023-07-08T06:29:38;1.90;;;1.80;;
5085;SDS011;4715;51.660;7.082;2023-07-08T06:32:00;1.90;;;1.80;;
5085;SDS011;4715;51.660;7.082;2023-07-08T06:34:22;2.30;;;2.20;;
5085;SDS011;4715;51.660;7.082;2023-07-08T06:36:44;1.93;;;1.83;;
5085;SDS011;4715;51.660;7.082;2023-07-08T06:39:07;1.90;;;1.80;;
5085;SDS011;4715;51.660;7.082;2023-07-08T06:41:31;1.70;;;1.60;;
5085;SDS011;4715;51.660;7.082;2023-07-08T06:43:53;2.80;;;2.20;;
5085;SDS011;4715;51.660;7.082;2023-07-08T06:46:15;1.80;;;1.70;;
5085;SDS011;4715;51.660;7.082;2023-07-08T06:48:38;2.03;;;1.93;;
5085;SDS011;4715;51.660;7.082;2023-07-08T06:51:00;2.43;;;2.23;;
5085;SDS011;4715;51.660;7.082;2023-07-08T06:53:22;1.70;;;1.60;;
5085;SDS011;4715;51.660;7.082;2023-07-08T06:55:45;1.90;;;1.80;;
5085;SDS011;4715;51.660;7.082;2023-07-08T06:58:07;2.07;;;1.97;;
5085;SDS011;4715;51.660;7.082;2023-07-08T07:00:30;1.90;;;1.80;;
5085;SDS011;4715;51.660;7.082;2023-07-08T07:02:51;1.87;;;1.77;;
5085;SDS011;4715;51.660;7.082;2023-07-08T07:05:13;1.87;;;1.77;;
5085;SDS011;4715;51.660;7.082;2023-07-08T07:07:35;1.90;;;1.80;;
5085;SDS011;4715;51.660;7.082;2023-07-08T07:10:00;2.20;;;2.00;;
5085;SDS011;4715;51.660;7.082;2023-07-08T07:12:25;2.13;;;1.93;;
5085;SDS011;4715;51.660;7.082;2023-07-08T07:14:48;2.20;;;1.70;;
5085;SDS011;4715;51.660;7.082;2023-07-08T07:17:14;2.00;;;1.80;;
5085;SDS011;4715;51.660;7.082;2023-07-08T07:19:36;2.07;;;1.97;;
5085;SDS011;4715;51.660;7.082;2023-07-08T07:21:59;1.70;;;1.60;;
5085;SDS011;4715;51.660;7.082;2023-07-08T07:24:20;1.90;;;1.80;;
5085;SDS011;4715;51.660;7.082;2023-07-08T07:26:43;1.97;;;1.87;;
5085;SDS011;4715;51.660;7.082;2023-07-08T07:29:06;2.20;;;2.10;;
5085;SDS011;4715;51.660;7.082;2023-07-08T07:31:30;2.17;;;2.07;;
5085;SDS011;4715;51.660;7.082;2023-07-08T07:33:53;1.87;;;1.77;;
5085;SDS011;4715;51.660;7.082;2023-07-08T07:36:17;1.63;;;1.53;;
5085;SDS011;4715;51.660;7.082;2023-07-08T07:38:39;1.60;;;1.50;;
5085;SDS011;4715;51.660;7.082;2023-07-08T07:41:04;2.27;;;2.00;;
5085;SDS011;4715;51.660;7.082;2023-07-08T07:43:26;1.83;;;1.73;;
5085;SDS011;4715;51.660;7.082;2023-07-08T07:48:33;2.20;;;2.10;;
5085;SDS011;4715;51.660;7.082;2023-07-08T07:50:57;1.87;;;1.77;;
5085;SDS011;4715;51.660;7.082;2023-07-08T07:53:20;1.70;;;1.60;;
5085;SDS011;4715;51.660;7.082;2023-07-08T07:55:42;2.13;;;2.03;;
5085;SDS011;4715;51.660;7.082;2023-07-08T07:58:05;2.40;;;2.07;;
5085;SDS011;4715;51.660;7.082;2023-07-08T08:00:28;1.90;;;1.80;;
5085;SDS011;4715;51.660;7.082;2023-07-08T08:02:51;2.50;;;2.30;;
5085;SDS011;4715;51.660;7.082;2023-07-08T08:08:13;2.33;;;2.20;;
5085;SDS011;4715;51.660;7.082;2023-07-08T08:10:36;2.30;;;2.07;;
5085;SDS011;4715;51.660;7.082;2023-07-08T08:13:03;2.23;;;2.03;;
5085;SDS011;4715;51.660;7.082;2023-07-08T08:21:00;2.13;;;2.03;;
5085;SDS011;4715;51.660;7.082;2023-07-08T08:23:25;4.67;;;2.60;;
5085;SDS011;4715;51.660;7.082;2023-07-08T08:25:50;2.30;;;2.10;;
5085;SDS011;4715;51.660;7.082;2023-07-08T08:28:12;3.13;;;2.93;;
5085;SDS011;4715;51.660;7.082;2023-07-08T08:30:34;2.77;;;2.53;;
5085;SDS011;4715;51.660;7.082;2023-07-08T08:32:56;2.37;;;2.10;;
5085;SDS011;4715;51.660;7.082;2023-07-08T08:35:20;5.93;;;2.70;;
5085;SDS011;4715;51.660;7.082;2023-07-08T08:37:41;2.60;;;2.50;;
5085;SDS011;4715;51.660;7.082;2023-07-08T08:40:04;2.50;;;2.40;;
5085;SDS011;4715;51.660;7.082;2023-07-08T08:42:28;3.00;;;2.80;;
5085;SDS011;4715;51.660;7.082;2023-07-08T08:44:54;2.90;;;2.70;;
5085;SDS011;4715;51.660;7.082;2023-07-08T08:47:21;3.50;;;2.70;;
5085;SDS011;4715;51.660;7.082;2023-07-08T08:49:54;5.47;;;3.60;;
5085;SDS011;4715;51.660;7.082;2023-07-08T08:52:27;4.33;;;3.40;;
5085;SDS011;4715;51.660;7.082;2023-07-08T08:54:50;3.70;;;3.10;;
5085;SDS011;4715;51.660;7.082;2023-07-08T08:57:13;4.80;;;3.20;;
5085;SDS011;4715;51.660;7.082;2023-07-08T08:59:53;3.10;;;2.83;;
5085;SDS011;4715;51.660;7.082;2023-07-08T09:02:28;3.43;;;3.17;;
5085;SDS011;4715;51.660;7.082;2023-07-08T09:04:55;5.47;;;3.70;;
5085;SDS011;4715;51.660;7.082;2023-07-08T09:07:23;8.10;;;3.67;;
5085;SDS011;4715;51.660;7.082;2023-07-08T09:09:47;5.90;;;3.97;;
5085;SDS011;4715;51.660;7.082;2023-07-08T09:12:24;4.23;;;3.80;;
5085;SDS011;4715;51.660;7.082;2023-07-08T09:14:48;5.07;;;3.27;;
5085;SDS011;4715;51.660;7.082;2023-07-08T09:17:14;3.87;;;3.57;;
5085;SDS011;4715;51.660;7.082;2023-07-08T09:19:43;3.30;;;3.10;;
5085;SDS011;4715;51.660;7.082;2023-07-08T09:22:10;2.90;;;2.70;;
5085;SDS011;4715;51.660;7.082;2023-07-08T09:24:37;3.20;;;3.00;;
5085;SDS011;4715;51.660;7.082;2023-07-08T09:27:04;2.60;;;2.50;;
5085;SDS011;4715;51.660;7.082;2023-07-08T09:29:26;3.70;;;3.00;;
5085;SDS011;4715;51.660;7.082;2023-07-08T09:31:48;2.63;;;2.43;;
5085;SDS011;4715;51.660;7.082;2023-07-08T09:34:11;3.70;;;3.03;;
5085;SDS011;4715;51.660;7.082;2023-07-08T09:36:38;3.87;;;3.57;;
5085;SDS011;4715;51.660;7.082;2023-07-08T09:39:05;3.50;;;3.30;;
5085;SDS011;4715;51.660;7.082;2023-07-08T09:41:33;4.00;;;3.70;;
5085;SDS011;4715;51.660;7.082;2023-07-08T09:44:04;3.50;;;3.30;;
5085;SDS011;4715;51.660;7.082;2023-07-08T09:46:35;3.70;;;3.40;;
5085;SDS011;4715;51.660;7.082;2023-07-08T09:48:58;3.37;;;3.17;;
5085;SDS011;4715;51.660;7.082;2023-07-08T09:51:21;4.30;;;3.90;;
5085;SDS011;4715;51.660;7.082;2023-07-08T09:53:43;3.00;;;2.80;;
5085;SDS011;4715;51.660;7.082;2023-07-08T09:56:05;2.80;;;2.70;;
5085;SDS011;4715;51.660;7.082;2023-07-08T09:58:34;3.47;;;3.27;;
5085;SDS011;4715;51.660;7.082;2023-07-08T10:01:00;3.27;;;3.07;;
5085;SDS011;4715;51.660;7.082;2023-07-08T10:03:30;3.40;;;3.20;;
5085;SDS011;4715;51.660;7.082;2023-07-08T10:05:55;3.83;;;3.63;;
5085;SDS011;4715;51.660;7.082;2023-07-08T10:08:22;3.60;;;3.40;;
5085;SDS011;4715;51.660;7.082;2023-07-08T10:10:49;4.23;;;3.83;;
5085;SDS011;4715;51.660;7.082;2023-07-08T10:13:20;3.80;;;3.57;;
5085;SDS011;4715;51.660;7.082;2023-07-08T10:15:48;4.40;;;4.00;;
5085;SDS011;4715;51.660;7.082;2023-07-08T10:18:15;3.57;;;3.37;;
5085;SDS011;4715;51.660;7.082;2023-07-08T10:20:39;3.30;;;3.10;;
5085;SDS011;4715;51.660;7.082;2023-07-08T10:23:12;3.70;;;3.40;;
5085;SDS011;4715;51.660;7.082;2023-07-08T10:25:45;4.50;;;4.10;;
5085;SDS011;4715;51.660;7.082;2023-07-08T10:28:19;3.93;;;3.63;;
5085;SDS011;4715;51.660;7.082;2023-07-08T10:30:53;3.80;;;3.50;;
5085;SDS011;4715;51.660;7.082;2023-07-08T10:33:34;3.77;;;3.50;;
5085;SDS011;4715;51.660;7.082;2023-07-08T10:36:23;5.60;;;5.10;;
5085;SDS011;4715;51.660;7.082;2023-07-08T10:38:50;5.50;;;4.43;;
5085;SDS011;4715;51.660;7.082;2023-07-08T10:41:29;4.60;;;4.20;;
5085;SDS011;4715;51.660;7.082;2023-07-08T10:44:00;4.00;;;3.80;;
5085;SDS011;4715;51.660;7.082;2023-07-08T10:46:31;4.60;;;4.30;;
5085;SDS011;4715;51.660;7.082;2023-07-08T10:49:04;4.07;;;3.67;;
5085;SDS011;4715;51.660;7.082;2023-07-08T10:51:38;5.90;;;4.00;;
5085;SDS011;4715;51.660;7.082;2023-07-08T10:54:23;4.83;;;3.30;;
5085;SDS011;4715;51.660;7.082;2023-07-08T10:56:55;4.20;;;3.90;;
5085;SDS011;4715;51.660;7.082;2023-07-08T10:59:31;4.60;;;4.20;;
5085;SDS011;4715;51.660;7.082;2023-07-08T11:02:11;4.87;;;3.80;;
5085;SDS011;4715;51.660;7.082;2023-07-08T11:04:48;4.57;;;4.00;;
5085;SDS011;4715;51.660;7.082;2023-07-08T11:07:22;4.13;;;3.73;;
5085;SDS011;4715;51.660;7.082;2023-07-08T11:09:54;4.27;;;3.97;;
5085;SDS011;4715;51.660;7.082;2023-07-08T11:12:23;4.10;;;3.80;;
5085;SDS011;4715;51.660;7.082;2023-07-08T11:14:51;4.47;;;4.07;;
5085;SDS011;4715;51.660;7.082;2023-07-08T11:17:19;4.10;;;3.80;;
5085;SDS011;4715;51.660;7.082;2023-07-08T11:19:50;4.20;;;3.90;;
5085;SDS011;4715;51.660;7.082;2023-07-08T11:22:16;3.80;;;3.60;;
5085;SDS011;4715;51.660;7.082;2023-07-08T11:24:42;4.47;;;4.10;;
5085;SDS011;4715;51.660;7.082;2023-07-08T11:27:08;3.67;;;3.37;;
5085;SDS011;4715;51.660;7.082;2023-07-08T11:29:39;3.90;;;3.67;;
5085;SDS011;4715;51.660;7.082;2023-07-08T11:32:05;4.40;;;4.10;;
5085;SDS011;4715;51.660;7.082;2023-07-08T11:34:31;3.63;;;3.33;;
5085;SDS011;4715;51.660;7.082;2023-07-08T11:36:56;3.33;;;3.13;;
5085;SDS011;4715;51.660;7.082;2023-07-08T11:39:26;3.70;;;3.50;;
5085;SDS011;4715;51.660;7.082;2023-07-08T11:41:50;3.83;;;3.63;;
5085;SDS011;4715;51.660;7.082;2023-07-08T11:44:24;3.93;;;3.63;;
5085;SDS011;4715;51.660;7.082;2023-07-08T11:46:53;3.57;;;3.37;;
5085;SDS011;4715;51.660;7.082;2023-07-08T11:49:16;4.20;;;3.90;;
5085;SDS011;4715;51.660;7.082;2023-07-08T11:51:41;4.07;;;3.77;;
5085;SDS011;4715;51.660;7.082;2023-07-08T11:54:13;4.17;;;3.80;;
5085;SDS011;4715;51.660;7.082;2023-07-08T11:56:48;3.43;;;3.23;;
5085;SDS011;4715;51.660;7.082;2023-07-08T11:59:18;3.47;;;3.23;;
5085;SDS011;4715;51.660;7.082;2023-07-08T12:01:46;4.50;;;4.20;;
5085;SDS011;4715;51.660;7.082;2023-07-08T12:04:16;3.90;;;3.70;;
5085;SDS011;4715;51.660;7.082;2023-07-08T12:06:46;3.40;;;3.20;;
5085;SDS011;4715;51.660;7.082;2023-07-08T12:09:20;4.10;;;3.47;;
5085;SDS011;4715;51.660;7.082;2023-07-08T12:11:48;4.00;;;3.70;;
5085;SDS011;4715;51.660;7.082;2023-07-08T12:14:16;4.03;;;3.73;;
5085;SDS011;4715;51.660;7.082;2023-07-08T12:16:38;3.10;;;2.90;;
5085;SDS011;4715;51.660;7.082;2023-07-08T12:19:00;3.40;;;3.20;;
5085;SDS011;4715;51.660;7.082;2023-07-08T12:21:25;4.53;;;4.13;;
5085;SDS011;4715;51.660;7.082;2023-07-08T12:23:48;4.30;;;4.00;;
5085;SDS011;4715;51.660;7.082;2023-07-08T12:26:12;4.00;;;3.70;;
5085;SDS011;4715;51.660;7.082;2023-07-08T12:28:36;3.50;;;3.30;;
5085;SDS011;4715;51.660;7.082;2023-07-08T12:30:59;4.17;;;3.87;;
5085;SDS011;4715;51.660;7.082;2023-07-08T12:33:23;3.50;;;3.30;;
5085;SDS011;4715;51.660;7.082;2023-07-08T12:35:48;3.80;;;3.50;;
5085;SDS011;4715;51.660;7.082;2023-07-08T12:38:18;3.20;;;3.00;;
5085;SDS011;4715;51.660;7.082;2023-07-08T12:40:42;3.07;;;2.87;;
5085;SDS011;4715;51.660;7.082;2023-07-08T12:43:08;3.97;;;3.57;;
5085;SDS011;4715;51.660;7.082;2023-07-08T12:45:31;2.50;;;2.33;;
5085;SDS011;4715;51.660;7.082;2023-07-08T12:47:53;3.40;;;2.90;;
5085;SDS011;4715;51.660;7.082;2023-07-08T12:50:15;4.17;;;3.80;;
5085;SDS011;4715;51.660;7.082;2023-07-08T12:52:37;3.93;;;3.57;;
5085;SDS011;4715;51.660;7.082;2023-07-08T12:55:00;3.60;;;3.40;;
5085;SDS011;4715;51.660;7.082;2023-07-08T12:57:22;3.57;;;3.37;;
5085;SDS011;4715;51.660;7.082;2023-07-08T12:59:46;3.60;;;3.30;;
5085;SDS011;4715;51.660;7.082;2023-07-08T13:02:12;4.10;;;3.77;;
5085;SDS011;4715;51.660;7.082;2023-07-08T13:04:36;3.97;;;3.67;;
5085;SDS011;4715;51.660;7.082;2023-07-08T13:07:00;3.50;;;3.07;;
5085;SDS011;4715;51.660;7.082;2023-07-08T13:09:31;3.10;;;2.90;;
5085;SDS011;4715;51.660;7.082;2023-07-08T13:11:57;3.83;;;3.53;;
5085;SDS011;4715;51.660;7.082;2023-07-08T13:14:19;3.03;;;2.83;;
5085;SDS011;4715;51.660;7.082;2023-07-08T13:16:45;3.67;;;3.37;;
5085;SDS011;4715;51.660;7.082;2023-07-08T13:19:10;3.10;;;2.90;;
5085;SDS011;4715;51.660;7.082;2023-07-08T13:21:35;3.20;;;3.00;;
5085;SDS011;4715;51.660;7.082;2023-07-08T13:23:57;2.90;;;2.70;;
5085;SDS011;4715;51.660;7.082;2023-07-08T13:26:21;3.23;;;3.03;;
5085;SDS011;4715;51.660;7.082;2023-07-08T13:28:45;2.80;;;2.60;;
5085;SDS011;4715;51.660;7.082;2023-07-08T13:31:13;2.87;;;2.67;;
5085;SDS011;4715;51.660;7.082;2023-07-08T13:33:38;3.00;;;2.87;;
5085;SDS011;4715;51.660;7.082;2023-07-08T13:36:00;2.63;;;2.50;;
5085;SDS011;4715;51.660;7.082;2023-07-08T13:38:25;2.90;;;2.70;;
5085;SDS011;4715;51.660;7.082;2023-07-08T13:41:00;3.43;;;3.23;;
5085;SDS011;4715;51.660;7.082;2023-07-08T13:43:23;3.27;;;3.00;;
5085;SDS011;4715;51.660;7.082;2023-07-08T13:45:48;3.70;;;3.50;;
5085;SDS011;4715;51.660;7.082;2023-07-08T13:48:11;3.33;;;3.03;;
5085;SDS011;4715;51.660;7.082;2023-07-08T13:50:38;2.77;;;2.67;;
5085;SDS011;4715;51.660;7.082;2023-07-08T13:55:44;3.17;;;2.97;;
5085;SDS011;4715;51.660;7.082;2023-07-08T13:58:06;3.73;;;3.37;;
5085;SDS011;4715;51.660;7.082;2023-07-08T14:00:31;2.97;;;2.87;;
5085;SDS011;4715;51.660;7.082;2023-07-08T14:02:55;2.70;;;2.50;;
5085;SDS011;4715;51.660;7.082;2023-07-08T14:05:17;3.20;;;3.00;;
5085;SDS011;4715;51.660;7.082;2023-07-08T14:07:42;2.70;;;2.60;;
5085;SDS011;4715;51.660;7.082;2023-07-08T14:10:08;3.00;;;2.80;;
5085;SDS011;4715;51.660;7.082;2023-07-08T14:12:32;2.73;;;2.27;;
5085;SDS011;4715;51.660;7.082;2023-07-08T14:14:56;2.70;;;2.50;;
5085;SDS011;4715;51.660;7.082;2023-07-08T14:17:19;3.13;;;2.93;;
5085;SDS011;4715;51.660;7.082;2023-07-08T14:19:43;2.63;;;2.43;;
5085;SDS011;4715;51.660;7.082;2023-07-08T14:22:14;2.80;;;2.60;;
5085;SDS011;4715;51.660;7.082;2023-07-08T14:24:44;3.20;;;2.90;;
5085;SDS011;4715;51.660;7.082;2023-07-08T14:27:08;4.80;;;3.37;;
5085;SDS011;4715;51.660;7.082;2023-07-08T14:29:33;3.80;;;3.33;;
5085;SDS011;4715;51.660;7.082;2023-07-08T14:31:58;3.57;;;3.27;;
5085;SDS011;4715;51.660;7.082;2023-07-08T14:34:21;4.27;;;3.87;;
5085;SDS011;4715;51.660;7.082;2023-07-08T14:36:46;3.90;;;3.60;;
5085;SDS011;4715;51.660;7.082;2023-07-08T14:39:09;3.80;;;3.50;;
5085;SDS011;4715;51.660;7.082;2023-07-08T14:41:34;3.60;;;3.20;;
5085;SDS011;4715;51.660;7.082;2023-07-08T14:43:56;3.27;;;3.07;;
5085;SDS011;4715;51.660;7.082;2023-07-08T14:49:07;2.77;;;2.67;;
5085;SDS011;4715;51.660;7.082;2023-07-08T14:51:34;2.93;;;2.73;;
5085;SDS011;4715;51.660;7.082;2023-07-08T14:53:56;3.10;;;2.90;;
5085;SDS011;4715;51.660;7.082;2023-07-08T14:56:18;3.57;;;2.50;;
5085;SDS011;4715;51.660;7.082;2023-07-08T14:58:42;3.13;;;2.93;;
5085;SDS011;4715;51.660;7.082;2023-07-08T15:01:11;3.20;;;3.00;;
5085;SDS011;4715;51.660;7.082;2023-07-08T15:03:41;3.50;;;3.20;;
5085;SDS011;4715;51.660;7.082;2023-07-08T15:06:04;3.03;;;2.83;;
5085;SDS011;4715;51.660;7.082;2023-07-08T15:08:30;2.43;;;2.33;;
5085;SDS011;4715;51.660;7.082;2023-07-08T15:13:43;5.50;;;3.57;;
5085;SDS011;4715;51.660;7.082;2023-07-08T15:16:07;3.37;;;3.17;;
5085;SDS011;4715;51.660;7.082;2023-07-08T15:18:32;3.13;;;2.93;;